sensor_id;sensor_type;location;lat;lon;timestamp;temperature;humidity
27439;DHT22;14887;51.252;7.470;2022-10-15T00:00:52;12.40;99.90
27439;DHT22;14887;51.252;7.470;2022-10-15T00:03:18;12.30;99.90
27439;DHT22;14887;51.252;7.470;2022-10-15T00:05:44;12.30;99.90
27439;DHT22;14887;51.252;7.470;2022-10-15T00:08:10;12.30;99.90
27439;DHT22;14887;51.252;7.470;2022-10-15T00:10:36;12.30;99.90
27439;DHT22;14887;51.252;7.470;2022-10-15T00:13:03;12.30;99.90
27439;DHT22;14887;51.252;7.470;2022-10-15T00:15:29;12.30;99.90
27439;DHT22;14887;51.252;7.470;2022-10-15T00:17:55;12.30;99.90
27439;DHT22;14887;51.252;7.470;2022-10-15T00:20:20;12.30;99.90
27439;DHT22;14887;51.252;7.470;2022-10-15T00:22:46;12.20;99.90
27439;DHT22;14887;51.252;7.470;2022-10-15T00:25:12;12.20;99.90
27439;DHT22;14887;51.252;7.470;2022-10-15T00:27:37;12.20;99.90
27439;DHT22;14887;51.252;7.470;2022-10-15T00:30:04;12.20;99.90
27439;DHT22;14887;51.252;7.470;2022-10-15T00:32:30;12.20;99.90
27439;DHT22;14887;51.252;7.470;2022-10-15T00:34:56;12.20;99.90
27439;DHT22;14887;51.252;7.470;2022-10-15T00:37:22;12.10;99.90
27439;DHT22;14887;51.252;7.470;2022-10-15T00:39:47;12.10;99.90
27439;DHT22;14887;51.252;7.470;2022-10-15T00:42:13;12.10;99.90
27439;DHT22;14887;51.252;7.470;2022-10-15T00:44:56;12.10;99.90
27439;DHT22;14887;51.252;7.470;2022-10-15T00:47:34;12.10;99.90
27439;DHT22;14887;51.252;7.470;2022-10-15T00:50:23;12.10;99.90
27439;DHT22;14887;51.252;7.470;2022-10-15T00:52:59;12.10;99.90
27439;DHT22;14887;51.252;7.470;2022-10-15T00:55:33;12.10;99.90
27439;DHT22;14887;51.252;7.470;2022-10-15T00:58:05;12.10;99.90
27439;DHT22;14887;51.252;7.470;2022-10-15T01:00:32;12.00;99.90
27439;DHT22;14887;51.252;7.470;2022-10-15T01:02:58;12.00;99.90
27439;DHT22;14887;51.252;7.470;2022-10-15T01:05:24;12.00;99.90
27439;DHT22;14887;51.252;7.470;2022-10-15T01:07:50;11.90;99.90
27439;DHT22;14887;51.252;7.470;2022-10-15T01:10:16;12.00;99.90
27439;DHT22;14887;51.252;7.470;2022-10-15T01:13:02;11.90;99.90
27439;DHT22;14887;51.252;7.470;2022-10-15T01:21:11;12.00;99.90
27439;DHT22;14887;51.252;7.470;2022-10-15T01:31:51;12.00;99.90
27439;DHT22;14887;51.252;7.470;2022-10-15T01:34:41;11.90;99.90
27439;DHT22;14887;51.252;7.470;2022-10-15T01:37:54;12.00;99.90
27439;DHT22;14887;51.252;7.470;2022-10-15T01:40:33;11.90;99.90
27439;DHT22;14887;51.252;7.470;2022-10-15T01:43:03;12.00;99.90
27439;DHT22;14887;51.252;7.470;2022-10-15T01:45:34;12.00;99.90
27439;DHT22;14887;51.252;7.470;2022-10-15T01:48:11;12.00;99.90
27439;DHT22;14887;51.252;7.470;2022-10-15T01:50:43;12.00;99.90
27439;DHT22;14887;51.252;7.470;2022-10-15T01:53:11;12.00;99.90
27439;DHT22;14887;51.252;7.470;2022-10-15T01:55:41;12.00;99.90
27439;DHT22;14887;51.252;7.470;2022-10-15T01:58:09;12.00;99.90
27439;DHT22;14887;51.252;7.470;2022-10-15T02:00:36;12.00;99.90
27439;DHT22;14887;51.252;7.470;2022-10-15T02:03:03;11.90;99.90
27439;DHT22;14887;51.252;7.470;2022-10-15T02:05:32;11.90;99.90
27439;DHT22;14887;51.252;7.470;2022-10-15T02:08:27;12.00;99.90
27439;DHT22;14887;51.252;7.470;2022-10-15T02:11:08;12.00;99.90
27439;DHT22;14887;51.252;7.470;2022-10-15T02:16:16;11.90;99.90
27439;DHT22;14887;51.252;7.470;2022-10-15T02:21:51;12.00;99.90
27439;DHT22;14887;51.252;7.470;2022-10-15T02:24:24;11.90;99.90
27439;DHT22;14887;51.252;7.470;2022-10-15T02:26:52;11.90;99.90
27439;DHT22;14887;51.252;7.470;2022-10-15T02:29:21;11.90;99.90
27439;DHT22;14887;51.252;7.470;2022-10-15T02:31:49;12.00;99.90
27439;DHT22;14887;51.252;7.470;2022-10-15T02:34:20;11.90;99.90
27439;DHT22;14887;51.252;7.470;2022-10-15T02:36:47;12.00;99.90
27439;DHT22;14887;51.252;7.470;2022-10-15T02:39:19;12.00;99.90
27439;DHT22;14887;51.252;7.470;2022-10-15T02:41:47;12.00;99.90
27439;DHT22;14887;51.252;7.470;2022-10-15T02:44:13;12.00;99.90
27439;DHT22;14887;51.252;7.470;2022-10-15T02:46:38;12.00;99.90
27439;DHT22;14887;51.252;7.470;2022-10-15T02:49:04;11.90;99.90
27439;DHT22;14887;51.252;7.470;2022-10-15T02:51:33;11.90;99.90
27439;DHT22;14887;51.252;7.470;2022-10-15T02:54:00;11.90;99.90
27439;DHT22;14887;51.252;7.470;2022-10-15T02:56:26;11.90;99.90
27439;DHT22;14887;51.252;7.470;2022-10-15T02:58:52;11.90;99.90
27439;DHT22;14887;51.252;7.470;2022-10-15T03:01:18;11.80;99.90
27439;DHT22;14887;51.252;7.470;2022-10-15T03:03:43;11.80;99.90
27439;DHT22;14887;51.252;7.470;2022-10-15T03:06:09;11.90;99.90
27439;DHT22;14887;51.252;7.470;2022-10-15T03:08:35;11.90;99.90
27439;DHT22;14887;51.252;7.470;2022-10-15T03:11:00;11.90;99.90
27439;DHT22;14887;51.252;7.470;2022-10-15T03:13:26;11.80;99.90
27439;DHT22;14887;51.252;7.470;2022-10-15T03:15:52;11.80;99.90
27439;DHT22;14887;51.252;7.470;2022-10-15T03:18:18;11.90;99.90
27439;DHT22;14887;51.252;7.470;2022-10-15T03:20:44;11.80;99.90
27439;DHT22;14887;51.252;7.470;2022-10-15T03:23:11;11.90;99.90
27439;DHT22;14887;51.252;7.470;2022-10-15T03:25:37;11.90;99.90
27439;DHT22;14887;51.252;7.470;2022-10-15T03:28:02;11.90;99.90
27439;DHT22;14887;51.252;7.470;2022-10-15T03:30:28;11.90;99.90
27439;DHT22;14887;51.252;7.470;2022-10-15T03:32:53;11.80;99.90
27439;DHT22;14887;51.252;7.470;2022-10-15T03:35:19;11.90;99.90
27439;DHT22;14887;51.252;7.470;2022-10-15T03:37:44;11.80;99.90
27439;DHT22;14887;51.252;7.470;2022-10-15T03:40:10;11.80;99.90
27439;DHT22;14887;51.252;7.470;2022-10-15T03:42:36;11.80;99.90
27439;DHT22;14887;51.252;7.470;2022-10-15T03:45:01;11.80;99.90
27439;DHT22;14887;51.252;7.470;2022-10-15T03:47:27;11.80;99.90
27439;DHT22;14887;51.252;7.470;2022-10-15T03:49:52;11.80;99.90
27439;DHT22;14887;51.252;7.470;2022-10-15T03:52:18;11.80;99.90
27439;DHT22;14887;51.252;7.470;2022-10-15T03:54:43;11.70;99.90
27439;DHT22;14887;51.252;7.470;2022-10-15T03:57:09;11.70;99.90
27439;DHT22;14887;51.252;7.470;2022-10-15T03:59:35;11.70;99.90
27439;DHT22;14887;51.252;7.470;2022-10-15T04:02:00;11.60;99.90
27439;DHT22;14887;51.252;7.470;2022-10-15T04:04:26;11.60;99.90
27439;DHT22;14887;51.252;7.470;2022-10-15T04:06:51;11.60;99.90
27439;DHT22;14887;51.252;7.470;2022-10-15T04:09:17;11.60;99.90
27439;DHT22;14887;51.252;7.470;2022-10-15T04:11:42;11.50;99.90
27439;DHT22;14887;51.252;7.470;2022-10-15T04:14:08;11.50;99.90
27439;DHT22;14887;51.252;7.470;2022-10-15T04:16:33;11.50;99.90
27439;DHT22;14887;51.252;7.470;2022-10-15T04:18:59;11.50;99.90
27439;DHT22;14887;51.252;7.470;2022-10-15T04:21:25;11.50;99.90
27439;DHT22;14887;51.252;7.470;2022-10-15T04:23:50;11.50;99.90
27439;DHT22;14887;51.252;7.470;2022-10-15T04:26:16;11.60;99.90
27439;DHT22;14887;51.252;7.470;2022-10-15T04:28:41;11.60;99.90
27439;DHT22;14887;51.252;7.470;2022-10-15T04:31:07;11.70;99.90
27439;DHT22;14887;51.252;7.470;2022-10-15T04:33:33;11.70;99.90
27439;DHT22;14887;51.252;7.470;2022-10-15T04:36:04;11.70;99.90
27439;DHT22;14887;51.252;7.470;2022-10-15T04:38:30;11.60;99.90
27439;DHT22;14887;51.252;7.470;2022-10-15T04:41:00;11.70;99.90
27439;DHT22;14887;51.252;7.470;2022-10-15T04:43:27;11.70;99.90
27439;DHT22;14887;51.252;7.470;2022-10-15T04:45:55;11.70;99.90
27439;DHT22;14887;51.252;7.470;2022-10-15T04:48:21;11.70;99.90
27439;DHT22;14887;51.252;7.470;2022-10-15T04:50:47;11.70;99.90
27439;DHT22;14887;51.252;7.470;2022-10-15T04:53:12;11.70;99.90
27439;DHT22;14887;51.252;7.470;2022-10-15T04:55:38;11.70;99.90
27439;DHT22;14887;51.252;7.470;2022-10-15T04:58:03;11.70;99.90
27439;DHT22;14887;51.252;7.470;2022-10-15T05:00:29;11.70;99.90
27439;DHT22;14887;51.252;7.470;2022-10-15T05:02:54;11.70;99.90
27439;DHT22;14887;51.252;7.470;2022-10-15T05:05:20;11.70;99.90
27439;DHT22;14887;51.252;7.470;2022-10-15T05:07:45;11.70;99.90
27439;DHT22;14887;51.252;7.470;2022-10-15T05:10:17;11.70;99.90
27439;DHT22;14887;51.252;7.470;2022-10-15T05:12:43;11.70;99.90
27439;DHT22;14887;51.252;7.470;2022-10-15T05:15:08;11.70;99.90
27439;DHT22;14887;51.252;7.470;2022-10-15T05:17:34;11.70;99.90
27439;DHT22;14887;51.252;7.470;2022-10-15T05:19:59;11.70;99.90
27439;DHT22;14887;51.252;7.470;2022-10-15T05:22:25;11.70;99.90
27439;DHT22;14887;51.252;7.470;2022-10-15T05:24:50;11.70;99.90
27439;DHT22;14887;51.252;7.470;2022-10-15T05:27:16;11.70;99.90
27439;DHT22;14887;51.252;7.470;2022-10-15T05:29:41;11.60;99.90
27439;DHT22;14887;51.252;7.470;2022-10-15T05:32:07;11.70;99.90
27439;DHT22;14887;51.252;7.470;2022-10-15T05:34:33;11.70;99.90
27439;DHT22;14887;51.252;7.470;2022-10-15T05:36:58;11.70;99.90
27439;DHT22;14887;51.252;7.470;2022-10-15T05:39:24;11.70;99.90
27439;DHT22;14887;51.252;7.470;2022-10-15T05:41:49;11.70;99.90
27439;DHT22;14887;51.252;7.470;2022-10-15T05:44:15;11.70;99.90
27439;DHT22;14887;51.252;7.470;2022-10-15T05:46:40;11.70;99.90
27439;DHT22;14887;51.252;7.470;2022-10-15T05:49:06;11.70;99.90
27439;DHT22;14887;51.252;7.470;2022-10-15T05:51:31;11.70;99.90
27439;DHT22;14887;51.252;7.470;2022-10-15T05:53:58;11.70;99.90
27439;DHT22;14887;51.252;7.470;2022-10-15T05:56:24;11.70;99.90
27439;DHT22;14887;51.252;7.470;2022-10-15T05:58:50;11.70;99.90
27439;DHT22;14887;51.252;7.470;2022-10-15T06:01:16;11.70;99.90
27439;DHT22;14887;51.252;7.470;2022-10-15T06:03:43;11.70;99.90
27439;DHT22;14887;51.252;7.470;2022-10-15T06:06:25;11.70;99.90
27439;DHT22;14887;51.252;7.470;2022-10-15T06:08:51;11.70;99.90
27439;DHT22;14887;51.252;7.470;2022-10-15T06:11:18;11.70;99.90
27439;DHT22;14887;51.252;7.470;2022-10-15T06:13:44;11.70;99.90
27439;DHT22;14887;51.252;7.470;2022-10-15T06:16:10;11.60;99.90
27439;DHT22;14887;51.252;7.470;2022-10-15T06:18:37;11.70;99.90
27439;DHT22;14887;51.252;7.470;2022-10-15T06:21:06;11.70;99.90
27439;DHT22;14887;51.252;7.470;2022-10-15T06:23:32;11.70;99.90
27439;DHT22;14887;51.252;7.470;2022-10-15T06:26:07;11.70;99.90
27439;DHT22;14887;51.252;7.470;2022-10-15T06:28:34;11.80;99.90
27439;DHT22;14887;51.252;7.470;2022-10-15T06:31:01;11.70;99.90
27439;DHT22;14887;51.252;7.470;2022-10-15T06:33:27;11.80;99.90
27439;DHT22;14887;51.252;7.470;2022-10-15T06:35:53;11.80;99.90
27439;DHT22;14887;51.252;7.470;2022-10-15T06:38:19;11.80;99.90
27439;DHT22;14887;51.252;7.470;2022-10-15T06:40:45;11.80;99.90
27439;DHT22;14887;51.252;7.470;2022-10-15T06:43:11;11.80;99.90
27439;DHT22;14887;51.252;7.470;2022-10-15T06:45:40;11.80;99.90
27439;DHT22;14887;51.252;7.470;2022-10-15T06:48:07;11.90;99.90
27439;DHT22;14887;51.252;7.470;2022-10-15T06:50:35;11.90;99.90
27439;DHT22;14887;51.252;7.470;2022-10-15T06:53:01;11.90;99.90
27439;DHT22;14887;51.252;7.470;2022-10-15T06:55:27;11.90;99.90
27439;DHT22;14887;51.252;7.470;2022-10-15T06:57:56;12.00;99.90
27439;DHT22;14887;51.252;7.470;2022-10-15T07:00:23;11.90;99.90
27439;DHT22;14887;51.252;7.470;2022-10-15T07:02:49;12.00;99.90
27439;DHT22;14887;51.252;7.470;2022-10-15T07:05:15;11.90;99.90
27439;DHT22;14887;51.252;7.470;2022-10-15T07:07:40;12.00;99.90
27439;DHT22;14887;51.252;7.470;2022-10-15T07:10:06;12.00;99.90
27439;DHT22;14887;51.252;7.470;2022-10-15T07:12:33;12.00;99.90
27439;DHT22;14887;51.252;7.470;2022-10-15T07:14:59;12.00;99.90
27439;DHT22;14887;51.252;7.470;2022-10-15T07:17:24;12.10;99.90
27439;DHT22;14887;51.252;7.470;2022-10-15T07:19:50;12.10;99.90
27439;DHT22;14887;51.252;7.470;2022-10-15T07:22:15;12.10;99.90
27439;DHT22;14887;51.252;7.470;2022-10-15T07:24:41;12.00;99.90
27439;DHT22;14887;51.252;7.470;2022-10-15T07:27:06;12.10;99.90
27439;DHT22;14887;51.252;7.470;2022-10-15T07:29:32;12.10;99.90
27439;DHT22;14887;51.252;7.470;2022-10-15T07:31:57;12.10;99.90
27439;DHT22;14887;51.252;7.470;2022-10-15T07:34:24;12.10;99.90
27439;DHT22;14887;51.252;7.470;2022-10-15T07:36:49;12.10;99.90
27439;DHT22;14887;51.252;7.470;2022-10-15T07:39:15;12.10;99.90
27439;DHT22;14887;51.252;7.470;2022-10-15T07:41:43;12.10;99.90
27439;DHT22;14887;51.252;7.470;2022-10-15T07:44:08;12.20;99.90
27439;DHT22;14887;51.252;7.470;2022-10-15T07:46:34;12.20;99.90
27439;DHT22;14887;51.252;7.470;2022-10-15T07:48:59;12.20;99.90
27439;DHT22;14887;51.252;7.470;2022-10-15T07:51:25;12.20;99.90
27439;DHT22;14887;51.252;7.470;2022-10-15T07:53:51;12.20;99.90
27439;DHT22;14887;51.252;7.470;2022-10-15T07:56:16;12.20;99.90
27439;DHT22;14887;51.252;7.470;2022-10-15T07:58:42;12.20;99.90
27439;DHT22;14887;51.252;7.470;2022-10-15T08:01:09;12.30;99.90
27439;DHT22;14887;51.252;7.470;2022-10-15T08:03:36;12.30;99.90
27439;DHT22;14887;51.252;7.470;2022-10-15T08:06:03;12.30;99.90
27439;DHT22;14887;51.252;7.470;2022-10-15T08:08:36;12.30;99.90
27439;DHT22;14887;51.252;7.470;2022-10-15T08:11:14;12.30;99.90
27439;DHT22;14887;51.252;7.470;2022-10-15T08:13:40;12.30;99.90
27439;DHT22;14887;51.252;7.470;2022-10-15T08:16:08;12.40;99.90
27439;DHT22;14887;51.252;7.470;2022-10-15T08:18:34;12.40;99.90
27439;DHT22;14887;51.252;7.470;2022-10-15T08:21:00;12.40;99.90
27439;DHT22;14887;51.252;7.470;2022-10-15T08:23:26;12.40;99.90
27439;DHT22;14887;51.252;7.470;2022-10-15T08:25:59;12.60;99.90
27439;DHT22;14887;51.252;7.470;2022-10-15T08:28:29;12.80;99.90
27439;DHT22;14887;51.252;7.470;2022-10-15T08:30:59;12.90;99.90
27439;DHT22;14887;51.252;7.470;2022-10-15T08:33:27;12.90;99.90
27439;DHT22;14887;51.252;7.470;2022-10-15T08:35:52;12.90;99.90
27439;DHT22;14887;51.252;7.470;2022-10-15T08:38:18;13.00;99.90
27439;DHT22;14887;51.252;7.470;2022-10-15T08:40:55;13.00;99.90
27439;DHT22;14887;51.252;7.470;2022-10-15T08:43:25;12.90;99.90
27439;DHT22;14887;51.252;7.470;2022-10-15T08:45:56;12.80;99.90
27439;DHT22;14887;51.252;7.470;2022-10-15T08:48:33;12.80;99.90
27439;DHT22;14887;51.252;7.470;2022-10-15T08:51:10;12.90;99.90
27439;DHT22;14887;51.252;7.470;2022-10-15T08:53:42;13.00;99.90
27439;DHT22;14887;51.252;7.470;2022-10-15T08:56:29;13.10;99.90
27439;DHT22;14887;51.252;7.470;2022-10-15T09:04:46;13.30;99.90
27439;DHT22;14887;51.252;7.470;2022-10-15T09:07:42;13.50;99.90
27439;DHT22;14887;51.252;7.470;2022-10-15T09:13:01;14.00;99.90
27439;DHT22;14887;51.252;7.470;2022-10-15T09:15:31;14.10;99.90
27439;DHT22;14887;51.252;7.470;2022-10-15T09:18:00;14.00;99.90
27439;DHT22;14887;51.252;7.470;2022-10-15T09:20:32;13.90;99.90
27439;DHT22;14887;51.252;7.470;2022-10-15T09:22:58;13.90;99.90
27439;DHT22;14887;51.252;7.470;2022-10-15T09:25:24;13.90;99.90
27439;DHT22;14887;51.252;7.470;2022-10-15T09:27:51;14.00;99.90
27439;DHT22;14887;51.252;7.470;2022-10-15T09:30:33;14.00;99.90
27439;DHT22;14887;51.252;7.470;2022-10-15T09:35:48;14.10;99.90
27439;DHT22;14887;51.252;7.470;2022-10-15T09:38:34;14.30;99.90
27439;DHT22;14887;51.252;7.470;2022-10-15T09:43:50;14.70;99.90
27439;DHT22;14887;51.252;7.470;2022-10-15T09:46:17;14.80;99.90
27439;DHT22;14887;51.252;7.470;2022-10-15T09:51:43;15.10;99.90
27439;DHT22;14887;51.252;7.470;2022-10-15T09:54:26;15.40;99.90
27439;DHT22;14887;51.252;7.470;2022-10-15T09:56:56;15.50;99.90
27439;DHT22;14887;51.252;7.470;2022-10-15T09:59:23;15.50;99.90
27439;DHT22;14887;51.252;7.470;2022-10-15T10:01:58;15.60;99.90
27439;DHT22;14887;51.252;7.470;2022-10-15T10:04:27;15.70;99.90
27439;DHT22;14887;51.252;7.470;2022-10-15T10:06:56;15.90;99.90
27439;DHT22;14887;51.252;7.470;2022-10-15T10:12:34;15.90;99.90
27439;DHT22;14887;51.252;7.470;2022-10-15T10:15:34;15.50;99.90
27439;DHT22;14887;51.252;7.470;2022-10-15T10:18:04;15.40;99.90
27439;DHT22;14887;51.252;7.470;2022-10-15T10:20:32;15.00;99.90
27439;DHT22;14887;51.252;7.470;2022-10-15T10:23:08;15.00;99.90
27439;DHT22;14887;51.252;7.470;2022-10-15T10:25:44;15.10;99.90
27439;DHT22;14887;51.252;7.470;2022-10-15T10:30:42;15.10;99.90
27439;DHT22;14887;51.252;7.470;2022-10-15T10:33:13;14.90;99.90
27439;DHT22;14887;51.252;7.470;2022-10-15T10:35:49;14.90;99.90
27439;DHT22;14887;51.252;7.470;2022-10-15T10:38:20;15.00;99.90
27439;DHT22;14887;51.252;7.470;2022-10-15T10:40:53;14.90;99.90
27439;DHT22;14887;51.252;7.470;2022-10-15T10:43:26;14.90;99.90
27439;DHT22;14887;51.252;7.470;2022-10-15T10:45:58;15.00;99.90
27439;DHT22;14887;51.252;7.470;2022-10-15T10:48:48;15.20;99.90
27439;DHT22;14887;51.252;7.470;2022-10-15T10:54:01;15.50;99.90
27439;DHT22;14887;51.252;7.470;2022-10-15T10:56:32;15.50;99.90
27439;DHT22;14887;51.252;7.470;2022-10-15T11:01:46;15.50;99.90
27439;DHT22;14887;51.252;7.470;2022-10-15T11:04:23;15.40;99.90
27439;DHT22;14887;51.252;7.470;2022-10-15T11:06:55;15.40;99.90
27439;DHT22;14887;51.252;7.470;2022-10-15T11:18:11;14.60;99.90
27439;DHT22;14887;51.252;7.470;2022-10-15T11:23:54;14.50;99.90
27439;DHT22;14887;51.252;7.470;2022-10-15T11:26:33;14.50;99.90
27439;DHT22;14887;51.252;7.470;2022-10-15T11:29:22;14.50;99.90
27439;DHT22;14887;51.252;7.470;2022-10-15T11:32:07;14.50;99.90
27439;DHT22;14887;51.252;7.470;2022-10-15T11:39:48;14.70;99.90
27439;DHT22;14887;51.252;7.470;2022-10-15T11:42:24;14.70;99.90
27439;DHT22;14887;51.252;7.470;2022-10-15T11:45:42;14.60;99.90
27439;DHT22;14887;51.252;7.470;2022-10-15T11:47:52;14.70;99.90
27439;DHT22;14887;51.252;7.470;2022-10-15T11:50:34;14.80;99.90
27439;DHT22;14887;51.252;7.470;2022-10-15T11:56:13;14.90;99.90
27439;DHT22;14887;51.252;7.470;2022-10-15T11:58:47;15.10;99.90
27439;DHT22;14887;51.252;7.470;2022-10-15T12:01:23;15.20;99.90
27439;DHT22;14887;51.252;7.470;2022-10-15T12:03:54;15.50;99.90
27439;DHT22;14887;51.252;7.470;2022-10-15T12:06:26;15.50;99.90
27439;DHT22;14887;51.252;7.470;2022-10-15T12:08:55;15.40;99.90
27439;DHT22;14887;51.252;7.470;2022-10-15T12:14:14;15.30;99.90
27439;DHT22;14887;51.252;7.470;2022-10-15T12:16:49;15.30;99.90
27439;DHT22;14887;51.252;7.470;2022-10-15T12:19:21;15.20;99.90
27439;DHT22;14887;51.252;7.470;2022-10-15T12:32:23;15.50;99.90
27439;DHT22;14887;51.252;7.470;2022-10-15T12:34:54;15.70;99.90
27439;DHT22;14887;51.252;7.470;2022-10-15T12:37:22;15.60;99.90
27439;DHT22;14887;51.252;7.470;2022-10-15T12:39:59;15.50;99.90
27439;DHT22;14887;51.252;7.470;2022-10-15T12:42:34;15.40;99.90
27439;DHT22;14887;51.252;7.470;2022-10-15T12:45:07;15.20;99.90
27439;DHT22;14887;51.252;7.470;2022-10-15T12:47:52;15.10;99.90
27439;DHT22;14887;51.252;7.470;2022-10-15T12:50:26;15.00;99.90
27439;DHT22;14887;51.252;7.470;2022-10-15T12:53:00;14.90;99.90
27439;DHT22;14887;51.252;7.470;2022-10-15T12:55:34;14.90;99.90
27439;DHT22;14887;51.252;7.470;2022-10-15T13:00:34;14.80;99.90
27439;DHT22;14887;51.252;7.470;2022-10-15T13:03:22;14.90;99.90
27439;DHT22;14887;51.252;7.470;2022-10-15T13:05:48;14.90;99.90
27439;DHT22;14887;51.252;7.470;2022-10-15T13:08:22;15.00;99.90
27439;DHT22;14887;51.252;7.470;2022-10-15T13:13:20;15.00;99.90
27439;DHT22;14887;51.252;7.470;2022-10-15T13:16:06;14.90;99.90
27439;DHT22;14887;51.252;7.470;2022-10-15T13:18:32;15.00;99.90
27439;DHT22;14887;51.252;7.470;2022-10-15T13:20:59;15.00;99.90
27439;DHT22;14887;51.252;7.470;2022-10-15T13:23:30;15.20;99.90
27439;DHT22;14887;51.252;7.470;2022-10-15T13:26:11;15.20;99.90
27439;DHT22;14887;51.252;7.470;2022-10-15T13:28:38;15.20;99.90
27439;DHT22;14887;51.252;7.470;2022-10-15T13:31:23;15.20;99.90
27439;DHT22;14887;51.252;7.470;2022-10-15T13:33:55;15.20;99.90
27439;DHT22;14887;51.252;7.470;2022-10-15T13:36:32;15.20;99.90
27439;DHT22;14887;51.252;7.470;2022-10-15T13:41:31;15.30;99.90
27439;DHT22;14887;51.252;7.470;2022-10-15T13:43:58;15.30;99.90
27439;DHT22;14887;51.252;7.470;2022-10-15T13:46:45;15.40;99.90
27439;DHT22;14887;51.252;7.470;2022-10-15T13:49:11;15.50;99.90
27439;DHT22;14887;51.252;7.470;2022-10-15T13:51:40;15.60;99.90
27439;DHT22;14887;51.252;7.470;2022-10-15T13:54:09;15.70;99.90
27439;DHT22;14887;51.252;7.470;2022-10-15T13:56:37;15.70;99.90
27439;DHT22;14887;51.252;7.470;2022-10-15T13:59:11;15.60;99.90
27439;DHT22;14887;51.252;7.470;2022-10-15T14:01:45;15.50;99.90
27439;DHT22;14887;51.252;7.470;2022-10-15T14:04:17;15.60;99.90
27439;DHT22;14887;51.252;7.470;2022-10-15T14:07:00;15.60;99.90
27439;DHT22;14887;51.252;7.470;2022-10-15T14:09:34;15.60;99.90
27439;DHT22;14887;51.252;7.470;2022-10-15T14:12:04;15.70;99.90
27439;DHT22;14887;51.252;7.470;2022-10-15T14:14:36;15.60;99.90
27439;DHT22;14887;51.252;7.470;2022-10-15T14:17:05;15.60;99.90
27439;DHT22;14887;51.252;7.470;2022-10-15T14:19:33;15.60;99.90
27439;DHT22;14887;51.252;7.470;2022-10-15T14:22:00;15.60;99.90
27439;DHT22;14887;51.252;7.470;2022-10-15T14:24:34;15.50;99.90
27439;DHT22;14887;51.252;7.470;2022-10-15T14:29:42;15.50;99.90
27439;DHT22;14887;51.252;7.470;2022-10-15T14:34:56;15.60;99.90
27439;DHT22;14887;51.252;7.470;2022-10-15T14:40:13;15.70;99.90
27439;DHT22;14887;51.252;7.470;2022-10-15T14:45:30;15.70;99.90
27439;DHT22;14887;51.252;7.470;2022-10-15T14:48:05;15.70;99.90
27439;DHT22;14887;51.252;7.470;2022-10-15T14:50:33;15.70;99.90
27439;DHT22;14887;51.252;7.470;2022-10-15T14:53:04;15.70;99.90
27439;DHT22;14887;51.252;7.470;2022-10-15T14:55:33;15.70;99.90
27439;DHT22;14887;51.252;7.470;2022-10-15T14:58:10;15.70;99.90
27439;DHT22;14887;51.252;7.470;2022-10-15T15:00:42;15.70;99.90
27439;DHT22;14887;51.252;7.470;2022-10-15T15:03:18;15.70;99.90
27439;DHT22;14887;51.252;7.470;2022-10-15T15:05:48;15.60;99.90
27439;DHT22;14887;51.252;7.470;2022-10-15T15:08:14;15.70;99.90
27439;DHT22;14887;51.252;7.470;2022-10-15T15:10:40;15.70;99.90
27439;DHT22;14887;51.252;7.470;2022-10-15T15:13:09;15.70;99.90
27439;DHT22;14887;51.252;7.470;2022-10-15T15:15:35;15.80;99.90
27439;DHT22;14887;51.252;7.470;2022-10-15T15:18:00;15.80;99.90
27439;DHT22;14887;51.252;7.470;2022-10-15T15:20:26;15.80;99.90
27439;DHT22;14887;51.252;7.470;2022-10-15T15:22:53;15.70;99.90
27439;DHT22;14887;51.252;7.470;2022-10-15T15:25:23;15.70;99.90
27439;DHT22;14887;51.252;7.470;2022-10-15T15:27:51;15.60;99.90
27439;DHT22;14887;51.252;7.470;2022-10-15T15:30:19;15.60;99.90
27439;DHT22;14887;51.252;7.470;2022-10-15T15:32:45;15.70;99.90
27439;DHT22;14887;51.252;7.470;2022-10-15T15:35:22;15.70;99.90
27439;DHT22;14887;51.252;7.470;2022-10-15T15:37:48;15.70;99.90
27439;DHT22;14887;51.252;7.470;2022-10-15T15:40:14;15.60;99.90
27439;DHT22;14887;51.252;7.470;2022-10-15T15:42:40;15.60;99.90
27439;DHT22;14887;51.252;7.470;2022-10-15T15:45:23;15.50;99.90
27439;DHT22;14887;51.252;7.470;2022-10-15T15:47:49;15.50;99.90
27439;DHT22;14887;51.252;7.470;2022-10-15T15:50:15;15.50;99.90
27439;DHT22;14887;51.252;7.470;2022-10-15T15:52:41;15.50;99.90
27439;DHT22;14887;51.252;7.470;2022-10-15T15:55:08;15.40;99.90
27439;DHT22;14887;51.252;7.470;2022-10-15T15:57:33;15.40;99.90
27439;DHT22;14887;51.252;7.470;2022-10-15T15:59:59;15.40;99.90
27439;DHT22;14887;51.252;7.470;2022-10-15T16:02:24;15.40;99.90
27439;DHT22;14887;51.252;7.470;2022-10-15T16:04:50;15.30;99.90
27439;DHT22;14887;51.252;7.470;2022-10-15T16:07:16;15.40;99.90
27439;DHT22;14887;51.252;7.470;2022-10-15T16:09:41;15.30;99.90
27439;DHT22;14887;51.252;7.470;2022-10-15T16:12:09;15.20;99.90
27439;DHT22;14887;51.252;7.470;2022-10-15T16:14:34;15.30;99.90
27439;DHT22;14887;51.252;7.470;2022-10-15T16:17:00;15.20;99.90
27439;DHT22;14887;51.252;7.470;2022-10-15T16:19:25;15.20;99.90
27439;DHT22;14887;51.252;7.470;2022-10-15T16:21:51;15.20;99.90
27439;DHT22;14887;51.252;7.470;2022-10-15T16:24:16;15.20;99.90
27439;DHT22;14887;51.252;7.470;2022-10-15T16:26:42;15.20;99.90
27439;DHT22;14887;51.252;7.470;2022-10-15T16:29:07;15.10;99.90
27439;DHT22;14887;51.252;7.470;2022-10-15T16:31:33;15.00;99.90
27439;DHT22;14887;51.252;7.470;2022-10-15T16:34:02;14.90;99.90
27439;DHT22;14887;51.252;7.470;2022-10-15T16:36:28;14.80;99.90
27439;DHT22;14887;51.252;7.470;2022-10-15T16:38:54;14.80;99.90
27439;DHT22;14887;51.252;7.470;2022-10-15T16:41:20;14.70;99.90
27439;DHT22;14887;51.252;7.470;2022-10-15T16:43:46;14.70;99.90
27439;DHT22;14887;51.252;7.470;2022-10-15T16:46:19;14.60;99.90
27439;DHT22;14887;51.252;7.470;2022-10-15T16:48:45;14.50;99.90
27439;DHT22;14887;51.252;7.470;2022-10-15T16:51:12;14.50;99.90
27439;DHT22;14887;51.252;7.470;2022-10-15T16:53:39;14.40;99.90
27439;DHT22;14887;51.252;7.470;2022-10-15T16:56:11;14.40;99.90
27439;DHT22;14887;51.252;7.470;2022-10-15T16:58:37;14.40;99.90
27439;DHT22;14887;51.252;7.470;2022-10-15T17:01:06;14.40;99.90
27439;DHT22;14887;51.252;7.470;2022-10-15T17:03:34;14.30;99.90
27439;DHT22;14887;51.252;7.470;2022-10-15T17:06:06;14.30;99.90
27439;DHT22;14887;51.252;7.470;2022-10-15T17:08:45;14.20;99.90
27439;DHT22;14887;51.252;7.470;2022-10-15T17:11:32;14.20;99.90
27439;DHT22;14887;51.252;7.470;2022-10-15T17:14:01;14.20;99.90
27439;DHT22;14887;51.252;7.470;2022-10-15T17:16:33;14.10;99.90
27439;DHT22;14887;51.252;7.470;2022-10-15T17:19:00;14.10;99.90
27439;DHT22;14887;51.252;7.470;2022-10-15T17:21:27;14.20;99.90
27439;DHT22;14887;51.252;7.470;2022-10-15T17:23:56;14.20;99.90